Time;durP1;ratioP1;P1;durP2;ratioP2;P2;SDS_P1;SDS_P2;PMS_P1;PMS_P2;Temp;Humidity;BMP_temperature;BMP_pressure;BME280_temperature;BME280_humidity;BME280_pressure;Samples;Min_cycle;Max_cycle;Signal;HPM_P1;HPM_P2
2023/10/16 00:02:12;;;;;;;13.63;4.70;;;5.20;99.90;;;;;;4957381;28;20035;-76
2023/10/16 00:04:44;;;;;;;6.05;3.70;;;5.20;99.90;;;;;;4956845;28;20038;-76
2023/10/16 00:07:13;;;;;;;7.20;5.43;;;5.20;99.90;;;;;;4958495;28;20100;-76
2023/10/16 00:09:43;;;;;;;6.97;3.83;;;5.20;99.90;;;;;;4957222;28;20034;-76
2023/10/16 00:12:08;;;;;;;8.75;4.50;;;5.10;99.90;;;;;;4955406;28;20045;-76
2023/10/16 00:14:35;;;;;;;7.70;3.55;;;5.00;99.90;;;;;;4955351;28;20415;-76
2023/10/16 00:17:03;;;;;;;4.85;3.10;;;5.10;99.90;;;;;;4972358;28;20117;-76
2023/10/16 00:19:33;;;;;;;6.65;3.55;;;4.90;99.90;;;;;;4971620;28;20895;-76
2023/10/16 00:22:00;;;;;;;6.07;4.55;;;5.00;99.90;;;;;;4958970;28;20030;-76
2023/10/16 00:24:25;;;;;;;4.72;3.20;;;5.10;99.90;;;;;;4975906;28;20034;-76
2023/10/16 00:26:51;;;;;;;6.50;4.15;;;5.10;99.90;;;;;;4957104;28;20042;-76
2023/10/16 00:29:19;;;;;;;9.07;4.80;;;5.00;99.90;;;;;;4937335;28;20415;-76
2023/10/16 00:31:46;;;;;;;4.53;3.50;;;5.00;99.90;;;;;;4959632;28;20030;-76
2023/10/16 00:34:19;;;;;;;5.57;3.17;;;4.90;99.90;;;;;;4971965;28;20092;-76
2023/10/16 00:36:49;;;;;;;6.45;4.47;;;4.90;99.90;;;;;;4977836;28;20387;-76
2023/10/16 00:39:19;;;;;;;9.18;4.72;;;5.00;99.90;;;;;;4974228;28;20129;-77
2023/10/16 00:41:46;;;;;;;6.85;3.90;;;5.00;99.90;;;;;;4970862;28;20030;-76
2023/10/16 00:44:16;;;;;;;6.97;4.40;;;5.00;99.90;;;;;;4957003;28;20026;-76
2023/10/16 00:46:45;;;;;;;7.72;4.60;;;5.00;99.90;;;;;;4961235;28;20034;-76
2023/10/16 00:49:13;;;;;;;9.65;5.18;;;4.90;99.90;;;;;;4970793;28;20049;-76
2023/10/16 00:51:41;;;;;;;6.80;4.05;;;4.80;99.90;;;;;;4978489;28;20033;-76
2023/10/16 00:54:18;;;;;;;8.20;4.53;;;4.90;99.90;;;;;;4975019;28;20390;-76
2023/10/16 00:56:45;;;;;;;6.40;4.32;;;4.90;99.90;;;;;;4946780;28;20510;-76
2023/10/16 00:59:16;;;;;;;8.07;4.65;;;4.80;99.90;;;;;;4981951;28;20027;-76
2023/10/16 01:01:43;;;;;;;10.43;4.93;;;4.90;99.90;;;;;;4996611;28;20080;-77
2023/10/16 01:04:10;;;;;;;7.20;4.20;;;4.80;99.90;;;;;;4978592;28;20065;-76
2023/10/16 01:06:41;;;;;;;5.53;4.35;;;4.90;99.90;;;;;;4976673;28;20030;-76
2023/10/16 01:09:09;;;;;;;9.85;5.40;;;4.90;99.90;;;;;;4976280;28;20027;-76
2023/10/16 01:11:39;;;;;;;8.32;4.97;;;4.80;99.90;;;;;;4965648;28;20402;-76
2023/10/16 01:14:05;;;;;;;7.75;4.47;;;4.70;99.90;;;;;;4976662;28;20038;-75
2023/10/16 01:16:30;;;;;;;9.73;6.35;;;4.50;99.90;;;;;;4978601;28;20030;-76
2023/10/16 01:19:06;;;;;;;13.50;6.18;;;4.50;99.90;;;;;;4959245;28;20041;-76
2023/10/16 01:21:32;;;;;;;8.18;5.70;;;4.60;99.90;;;;;;4958613;28;20121;-76
2023/10/16 01:24:03;;;;;;;10.35;6.22;;;4.60;99.90;;;;;;4974197;28;20158;-76
2023/10/16 01:26:29;;;;;;;8.82;5.38;;;4.60;99.90;;;;;;4959180;28;20832;-76
2023/10/16 01:28:55;;;;;;;13.63;6.68;;;4.50;99.90;;;;;;4980947;28;20634;-77
2023/10/16 01:31:21;;;;;;;8.20;5.00;;;4.40;99.90;;;;;;4964226;28;20022;-77
2023/10/16 01:33:47;;;;;;;9.93;5.53;;;4.50;99.90;;;;;;4978813;28;20553;-76
2023/10/16 01:36:13;;;;;;;8.88;5.22;;;4.40;99.90;;;;;;4978895;28;20046;-76
2023/10/16 01:38:39;;;;;;;11.38;6.10;;;4.60;99.90;;;;;;4977478;28;20060;-76
2023/10/16 01:41:05;;;;;;;12.73;6.18;;;4.60;99.90;;;;;;4976839;28;20101;-77
2023/10/16 01:43:34;;;;;;;12.13;6.68;;;4.50;99.90;;;;;;4962113;28;20582;-76
2023/10/16 01:46:20;;;;;;;6.80;4.60;;;4.30;99.90;;;;;;4960732;28;20030;-76
2023/10/16 01:48:49;;;;;;;7.63;4.40;;;4.30;99.90;;;;;;4976737;28;20037;-76
2023/10/16 01:51:19;;;;;;;9.48;4.82;;;4.40;99.90;;;;;;4977030;28;20457;-76
2023/10/16 01:53:47;;;;;;;7.22;5.10;;;4.50;99.90;;;;;;4966378;28;20040;-76
2023/10/16 01:56:13;;;;;;;11.73;6.60;;;4.60;99.90;;;;;;4978748;28;20048;-76
2023/10/16 01:58:46;;;;;;;10.48;5.75;;;4.50;99.90;;;;;;4959110;28;20666;-76
2023/10/16 02:01:16;;;;;;;11.93;6.75;;;4.40;99.90;;;;;;4983726;28;20502;-76
2023/10/16 02:03:43;;;;;;;14.80;8.38;;;4.30;99.90;;;;;;4977952;28;20078;-76
2023/10/16 02:06:11;;;;;;;8.13;5.53;;;4.30;99.90;;;;;;4979005;28;20050;-77
2023/10/16 02:08:37;;;;;;;10.35;6.75;;;4.30;99.90;;;;;;4978494;28;20520;-76
2023/10/16 02:11:02;;;;;;;15.05;7.38;;;4.50;99.90;;;;;;4958048;28;20022;-76
2023/10/16 02:13:30;;;;;;;8.68;5.32;;;4.40;99.90;;;;;;4975804;28;20042;-76
2023/10/16 02:15:56;;;;;;;18.80;7.05;;;4.50;99.90;;;;;;4974345;28;20092;-76
2023/10/16 02:18:27;;;;;;;11.85;5.35;;;4.40;99.90;;;;;;4961421;28;20671;-76
2023/10/16 02:20:53;;;;;;;8.90;7.03;;;4.40;99.90;;;;;;4954564;28;20407;-76
2023/10/16 02:23:18;;;;;;;10.30;6.38;;;4.40;99.90;;;;;;4979361;28;20038;-76
2023/10/16 02:25:47;;;;;;;9.35;5.50;;;4.20;99.90;;;;;;4976873;28;20319;-76
2023/10/16 02:28:13;;;;;;;10.18;5.88;;;4.00;99.90;;;;;;4978437;28;20122;-76
2023/10/16 02:30:41;;;;;;;16.05;7.13;;;4.00;99.90;;;;;;4980782;28;20517;-76
2023/10/16 02:33:15;;;;;;;12.77;8.05;;;4.10;99.90;;;;;;4975523;28;20049;-76
2023/10/16 02:35:42;;;;;;;15.82;8.52;;;3.80;99.90;;;;;;4961849;28;20601;-76
2023/10/16 02:38:44;;;;;;;9.38;6.00;;;3.70;99.90;;;;;;4978162;28;20390;-76
2023/10/16 02:41:03;;;;;;;16.73;8.80;;;3.80;99.90;;;;;;4977946;28;20070;-76
2023/10/16 02:43:29;;;;;;;9.10;6.10;;;3.90;99.90;;;;;;4973101;28;20414;-76
2023/10/16 02:45:56;;;;;;;11.50;7.50;;;3.80;99.90;;;;;;4974190;28;20041;-76
2023/10/16 02:48:21;;;;;;;11.32;7.60;;;3.80;99.90;;;;;;4944388;28;20097;-77
2023/10/16 02:50:50;;;;;;;9.35;6.22;;;3.90;99.90;;;;;;4974006;28;20073;-76
2023/10/16 02:53:22;;;;;;;14.77;8.73;;;4.00;99.90;;;;;;4962226;28;20026;-77
2023/10/16 02:55:49;;;;;;;11.45;7.25;;;3.70;99.90;;;;;;4968255;28;20135;-76
2023/10/16 02:58:15;;;;;;;10.75;5.72;;;3.70;99.90;;;;;;4972238;28;20394;-76
2023/10/16 03:00:49;;;;;;;15.50;8.18;;;3.90;99.90;;;;;;4972918;28;20030;-77
2023/10/16 03:03:17;;;;;;;12.73;6.93;;;4.00;99.90;;;;;;4969752;28;20144;-76
2023/10/16 03:05:44;;;;;;;10.50;6.60;;;3.90;99.90;;;;;;4975900;28;20042;-76
2023/10/16 03:08:10;;;;;;;9.35;6.18;;;4.10;99.90;;;;;;4976326;28;20121;-76
2023/10/16 03:10:36;;;;;;;13.40;6.70;;;4.20;99.90;;;;;;4959731;28;20150;-76
2023/10/16 03:13:05;;;;;;;9.10;5.07;;;4.20;99.90;;;;;;4972453;28;20046;-76
2023/10/16 03:15:38;;;;;;;14.88;7.80;;;4.10;99.90;;;;;;4972206;28;20038;-76
2023/10/16 03:18:05;;;;;;;11.07;5.78;;;4.20;99.90;;;;;;4976239;28;20146;-76
2023/10/16 03:20:37;;;;;;;12.57;7.75;;;4.00;99.90;;;;;;4959297;28;20126;-76
2023/10/16 03:23:06;;;;;;;7.95;5.35;;;4.00;99.90;;;;;;4970345;28;20132;-76
2023/10/16 03:28:11;;;;;;;10.90;7.33;;;4.10;99.90;;;;;;4972196;28;20105;-76
2023/10/16 03:30:37;;;;;;;13.02;8.20;;;4.00;99.90;;;;;;4955974;28;20033;-76
2023/10/16 03:33:03;;;;;;;14.43;8.52;;;3.80;99.90;;;;;;4971942;28;20042;-75
2023/10/16 03:35:32;;;;;;;10.57;7.00;;;3.80;99.90;;;;;;4954546;28;20398;-76
2023/10/16 03:37:58;;;;;;;15.23;8.07;;;3.70;99.90;;;;;;4973639;28;20035;-76
2023/10/16 03:40:25;;;;;;;9.32;5.63;;;3.90;99.90;;;;;;4972103;28;20038;-76
2023/10/16 03:42:59;;;;;;;13.18;7.85;;;3.90;99.90;;;;;;4970898;28;20490;-75
2023/10/16 03:45:26;;;;;;;20.55;9.30;;;3.80;99.90;;;;;;4973918;28;20122;-77
2023/10/16 03:47:58;;;;;;;10.35;6.85;;;3.70;99.90;;;;;;4956887;28;20039;-76
2023/10/16 03:50:34;;;;;;;13.15;9.02;;;3.80;99.90;;;;;;4974724;28;20034;-76
2023/10/16 03:53:01;;;;;;;17.25;8.43;;;3.90;99.90;;;;;;4972291;28;20080;-76
2023/10/16 03:55:27;;;;;;;13.82;7.20;;;3.80;99.90;;;;;;4973051;28;20038;-76
2023/10/16 03:57:53;;;;;;;15.25;9.25;;;3.80;99.90;;;;;;4972494;28;20093;-76
2023/10/16 04:00:25;;;;;;;16.00;9.15;;;3.80;99.90;;;;;;4972723;28;20474;-78
2023/10/16 04:02:51;;;;;;;18.35;8.98;;;3.80;99.90;;;;;;4959135;28;20070;-77
2023/10/16 04:05:45;;;;;;;15.20;8.75;;;3.80;99.90;;;;;;4968652;28;20069;-77
2023/10/16 04:08:13;;;;;;;10.50;6.13;;;3.80;99.90;;;;;;4978849;28;20386;-77
2023/10/16 04:10:43;;;;;;;14.07;9.27;;;3.70;99.90;;;;;;4989857;28;20041;-76
2023/10/16 04:13:09;;;;;;;11.75;8.07;;;3.80;99.90;;;;;;4979907;28;20439;-77
2023/10/16 04:15:59;;;;;;;11.82;6.93;;;3.80;99.90;;;;;;4956127;28;20057;-78
2023/10/16 04:29:45;;;;;;;11.23;7.05;;;3.80;99.90;;;;;;4974687;28;20461;-78
2023/10/16 04:31:44;;;;;;;14.32;8.48;;;3.60;99.90;;;;;;4984985;28;20165;-76
2023/10/16 04:34:24;;;;;;;13.88;8.68;;;3.80;99.90;;;;;;4962993;28;20513;-78
2023/10/16 04:36:53;;;;;;;13.10;8.63;;;3.90;99.90;;;;;;4963703;28;20042;-78
2023/10/16 04:45:00;;;;;;;14.18;8.95;;;3.80;99.90;;;;;;4974990;28;20060;-78
2023/10/16 04:47:41;;;;;;;15.68;7.90;;;3.90;99.90;;;;;;4954965;28;20724;-77
2023/10/16 04:50:11;;;;;;;19.75;8.75;;;3.90;99.90;;;;;;4971715;28;20776;-78
2023/10/16 04:55:53;;;;;;;39.85;10.40;;;3.90;99.90;;;;;;4979222;28;20053;-77
2023/10/16 05:01:17;;;;;;;36.10;8.98;;;3.60;99.90;;;;;;4973343;28;20147;-75
2023/10/16 05:06:15;;;;;;;203.43;18.83;;;3.90;99.90;;;;;;4983237;28;20558;-78
2023/10/16 05:11:27;;;;;;;40.08;10.48;;;3.50;99.90;;;;;;4975143;28;20056;-77
2023/10/16 05:13:56;;;;;;;29.48;12.40;;;3.40;99.90;;;;;;4974903;28;20053;-77
2023/10/16 05:16:32;;;;;;;22.83;12.32;;;3.60;99.90;;;;;;4973395;28;20042;-76
2023/10/16 05:19:03;;;;;;;;;;;3.60;99.90;;;;;;4945006;28;20358;-77
2023/10/16 06:16:18;;;;;;;22.38;11.98;;;3.40;99.90;;;;;;4980436;28;20699;-77
2023/10/16 06:18:44;;;;;;;32.67;13.13;;;3.50;99.90;;;;;;4990228;28;20034;-76
2023/10/16 06:21:10;;;;;;;28.83;15.73;;;3.60;99.90;;;;;;4979215;28;20694;-78
2023/10/16 06:23:42;;;;;;;21.63;13.73;;;3.60;99.90;;;;;;4978575;28;20045;-76
2023/10/16 06:26:08;;;;;;;16.30;7.85;;;3.40;99.90;;;;;;4960563;28;20033;-77
2023/10/16 06:28:39;;;;;;;62.17;15.82;;;3.60;99.90;;;;;;4974420;28;20030;-78
2023/10/16 06:31:05;;;;;;;29.83;15.55;;;3.70;99.90;;;;;;4976612;28;20895;-77
2023/10/16 06:33:31;;;;;;;16.75;9.98;;;3.60;99.90;;;;;;4975834;28;20042;-77
2023/10/16 06:35:57;;;;;;;23.75;11.32;;;3.70;99.90;;;;;;4973899;28;20487;-76
2023/10/16 06:38:23;;;;;;;24.20;12.40;;;3.80;99.90;;;;;;4958552;28;20034;-77
2023/10/16 06:40:54;;;;;;;63.33;14.65;;;3.90;99.90;;;;;;4972505;28;20465;-77
2023/10/16 06:43:25;;;;;;;21.95;13.40;;;3.80;99.90;;;;;;4941024;28;20089;-76
2023/10/16 06:45:58;;;;;;;22.25;11.55;;;3.90;99.90;;;;;;4972839;28;20502;-77
2023/10/16 06:48:27;;;;;;;22.80;13.48;;;4.10;99.90;;;;;;4976328;28;20044;-77
2023/10/16 06:50:53;;;;;;;27.02;14.93;;;4.10;99.90;;;;;;4959115;28;20038;-77
2023/10/16 06:53:22;;;;;;;23.40;13.80;;;4.20;99.90;;;;;;4973829;28;20426;-77
2023/10/16 06:55:50;;;;;;;19.95;9.38;;;4.20;99.90;;;;;;4977264;28;20039;-76
2023/10/16 06:58:18;;;;;;;45.97;15.25;;;4.20;99.90;;;;;;4958703;28;20058;-76
2023/10/16 07:00:47;;;;;;;22.85;11.52;;;4.20;99.90;;;;;;4955555;28;20038;-76
2023/10/16 07:03:12;;;;;;;26.92;13.68;;;4.20;99.90;;;;;;4959252;28;20036;-76
2023/10/16 07:05:43;;;;;;;18.73;11.65;;;4.30;99.90;;;;;;4957809;28;20820;-77
2023/10/16 07:08:18;;;;;;;17.38;10.63;;;4.40;99.90;;;;;;4972198;28;20034;-77
2023/10/16 07:10:51;;;;;;;18.70;9.77;;;4.50;99.90;;;;;;4973491;28;20042;-77
2023/10/16 07:13:26;;;;;;;21.05;12.43;;;4.50;99.90;;;;;;4973237;28;20487;-77
2023/10/16 07:15:56;;;;;;;23.17;13.48;;;4.60;99.90;;;;;;4956768;28;20498;-76
2023/10/16 07:18:25;;;;;;;18.55;10.38;;;4.70;99.90;;;;;;4942413;28;20474;-77
2023/10/16 07:23:34;;;;;;;21.35;11.25;;;4.80;99.90;;;;;;4974057;28;20150;-77
2023/10/16 07:26:01;;;;;;;22.52;12.60;;;4.90;99.90;;;;;;4974341;28;20162;-77
2023/10/16 07:28:27;;;;;;;16.33;10.60;;;5.00;99.90;;;;;;4974303;28;20034;-77
2023/10/16 07:30:56;;;;;;;21.23;10.65;;;5.00;99.90;;;;;;4957754;28;20046;-76
2023/10/16 07:33:22;;;;;;;20.65;12.30;;;5.10;99.90;;;;;;4973336;28;20478;-77
2023/10/16 07:35:53;;;;;;;22.40;12.93;;;5.10;99.90;;;;;;4973749;28;20038;-76
2023/10/16 07:38:22;;;;;;;30.88;17.15;;;5.20;99.90;;;;;;4972174;28;20034;-76
2023/10/16 07:40:54;;;;;;;31.75;16.45;;;5.20;99.90;;;;;;4971671;28;20045;-76
2023/10/16 07:43:27;;;;;;;24.73;14.65;;;5.20;99.90;;;;;;4974298;28;20113;-76
2023/10/16 07:48:40;;;;;;;33.47;17.23;;;5.40;99.90;;;;;;4963420;28;20031;-76
2023/10/16 07:51:07;;;;;;;27.17;14.40;;;5.50;99.90;;;;;;4973468;28;20598;-76
2023/10/16 07:53:38;;;;;;;24.65;13.10;;;5.60;99.90;;;;;;4959050;28;20475;-77
2023/10/16 07:56:19;;;;;;;21.63;12.90;;;5.60;99.90;;;;;;4944904;28;20039;-76
2023/10/16 07:58:48;;;;;;;24.08;13.90;;;5.80;99.90;;;;;;4975566;28;20034;-76
2023/10/16 08:01:17;;;;;;;34.22;17.88;;;5.90;99.90;;;;;;4972169;28;20121;-76
2023/10/16 08:03:45;;;;;;;33.40;18.75;;;6.00;99.90;;;;;;4975549;28;20529;-76
2023/10/16 08:06:17;;;;;;;26.65;15.35;;;6.00;99.90;;;;;;4972075;28;20034;-77
2023/10/16 08:08:48;;;;;;;23.45;14.57;;;6.10;99.90;;;;;;4968965;28;20057;-76
2023/10/16 08:11:18;;;;;;;35.30;19.45;;;6.30;99.90;;;;;;4957232;28;20030;-77
2023/10/16 08:13:47;;;;;;;28.77;15.93;;;6.30;99.90;;;;;;4971770;28;20031;-76
2023/10/16 08:16:18;;;;;;;30.20;16.48;;;6.30;99.90;;;;;;4972442;28;20057;-76
2023/10/16 08:18:51;;;;;;;39.15;18.85;;;6.50;99.90;;;;;;4956536;28;20027;-76
2023/10/16 08:21:26;;;;;;;27.05;14.60;;;6.60;99.90;;;;;;4973652;28;20034;-77
2023/10/16 08:23:58;;;;;;;25.10;14.30;;;6.70;99.90;;;;;;4972747;28;20110;-77
2023/10/16 08:26:29;;;;;;;24.25;13.40;;;6.80;99.90;;;;;;4945088;28;20034;-76
2023/10/16 08:29:51;;;;;;;17.73;11.05;;;6.90;99.90;;;;;;4970783;28;20386;-77
2023/10/16 08:31:48;;;;;;;22.33;12.80;;;7.00;99.90;;;;;;4978260;28;21663;-76
2023/10/16 08:34:21;;;;;;;32.80;15.30;;;7.20;99.90;;;;;;4965803;28;20561;-76
2023/10/16 08:36:53;;;;;;;39.15;20.42;;;7.20;99.90;;;;;;4976431;28;20104;-77
2023/10/16 08:39:19;;;;;;;25.38;14.65;;;7.30;99.90;;;;;;4974025;28;20052;-76
2023/10/16 08:41:51;;;;;;;26.58;15.25;;;7.40;99.90;;;;;;4990487;28;20076;-76
2023/10/16 08:44:24;;;;;;;29.42;16.67;;;7.50;99.90;;;;;;4975390;28;20509;-76
2023/10/16 08:49:22;;;;;;;20.20;11.23;;;7.70;99.90;;;;;;4971693;28;20088;-77
2023/10/16 08:51:49;;;;;;;28.30;17.17;;;7.80;99.90;;;;;;4993946;28;20053;-76
2023/10/16 08:57:00;;;;;;;30.80;13.88;;;8.20;99.90;;;;;;4974744;28;20169;-76
2023/10/16 08:59:25;;;;;;;44.53;20.40;;;8.20;99.90;;;;;;4959118;28;20445;-76
2023/10/16 09:01:53;;;;;;;23.60;12.02;;;8.40;99.90;;;;;;4955653;28;20034;-76
2023/10/16 09:04:18;;;;;;;23.80;10.95;;;8.40;99.90;;;;;;4959108;28;20042;-77
2023/10/16 09:06:44;;;;;;;24.83;13.77;;;8.60;99.90;;;;;;4972974;28;20520;-77
2023/10/16 09:09:13;;;;;;;22.85;12.15;;;8.80;99.90;;;;;;4959783;28;20031;-77
2023/10/16 09:11:39;;;;;;;21.35;13.02;;;8.90;99.90;;;;;;4994011;28;20022;-77
2023/10/16 09:14:07;;;;;;;16.65;8.80;;;9.00;99.90;;;;;;4963389;28;20037;-76
2023/10/16 09:16:34;;;;;;;19.00;11.68;;;9.10;99.90;;;;;;4977199;28;20432;-76
2023/10/16 09:19:02;;;;;;;20.92;10.85;;;9.20;99.90;;;;;;4976412;28;20256;-77
2023/10/16 09:21:28;;;;;;;26.90;12.63;;;9.30;99.90;;;;;;4946662;28;20046;-76
2023/10/16 09:24:00;;;;;;;16.33;9.38;;;9.40;99.90;;;;;;4945909;28;20034;-76
2023/10/16 09:26:28;;;;;;;14.52;8.65;;;9.60;99.90;;;;;;4979814;28;20033;-77
2023/10/16 09:29:13;;;;;;;21.42;9.95;;;9.80;99.90;;;;;;4973159;28;20065;-78
2023/10/16 09:31:40;;;;;;;16.23;8.30;;;9.90;99.90;;;;;;4965384;28;20563;-76
2023/10/16 09:34:06;;;;;;;14.57;9.40;;;10.00;99.90;;;;;;4978759;28;20113;-76
2023/10/16 09:36:36;;;;;;;14.18;7.65;;;10.10;99.90;;;;;;4975406;28;20066;-76
2023/10/16 09:39:16;;;;;;;15.15;7.10;;;10.20;99.90;;;;;;4976668;28;20559;-77
2023/10/16 09:41:42;;;;;;;12.10;7.18;;;10.40;99.90;;;;;;4982519;28;20032;-76
2023/10/16 09:44:22;;;;;;;11.35;6.38;;;10.60;99.90;;;;;;4975906;28;20030;-76
2023/10/16 09:49:28;;;;;;;19.02;9.48;;;11.00;99.90;;;;;;4975680;28;20506;-77
2023/10/16 09:52:04;;;;;;;21.70;10.43;;;11.10;99.90;;;;;;4977841;28;20042;-77
2023/10/16 09:54:30;;;;;;;12.55;7.30;;;11.30;99.90;;;;;;4963298;28;20325;-76
2023/10/16 09:57:00;;;;;;;9.10;5.30;;;11.30;99.90;;;;;;4963959;28;20118;-77
2023/10/16 09:59:33;;;;;;;10.48;5.82;;;11.40;99.90;;;;;;4971980;28;20129;-76
2023/10/16 10:02:16;;;;;;;14.90;8.07;;;11.40;99.90;;;;;;4973234;28;20565;-77
2023/10/16 10:04:44;;;;;;;19.90;7.40;;;11.50;99.90;;;;;;4962647;28;20031;-76
2023/10/16 10:07:18;;;;;;;23.33;10.70;;;11.50;99.90;;;;;;4961111;28;20030;-77
2023/10/16 10:09:46;;;;;;;12.98;7.43;;;11.60;99.90;;;;;;4978152;28;20034;-77
2023/10/16 10:12:42;;;;;;;20.48;8.13;;;11.60;99.90;;;;;;4281894;28;10000318;-77
2023/10/16 10:15:17;;;;;;;20.88;9.80;;;11.50;99.90;;;;;;4971571;28;20113;-76
2023/10/16 10:17:43;;;;;;;18.83;8.63;;;11.50;99.90;;;;;;4952990;28;20113;-76
2023/10/16 10:20:09;;;;;;;12.65;6.97;;;11.70;99.90;;;;;;4971890;28;20474;-76
2023/10/16 10:22:35;;;;;;;14.02;7.47;;;11.70;99.90;;;;;;4971716;28;20109;-76
2023/10/16 10:25:16;;;;;;;16.40;7.30;;;11.80;99.90;;;;;;4959153;28;20524;-76
2023/10/16 10:27:42;;;;;;;17.95;9.13;;;11.60;99.90;;;;;;4991581;28;20121;-76
2023/10/16 10:30:17;;;;;;;16.92;8.27;;;12.00;99.90;;;;;;4968352;28;20036;-76
2023/10/16 10:32:45;;;;;;;12.85;7.85;;;12.30;99.90;;;;;;4974239;28;20037;-75
2023/10/16 10:35:30;;;;;;;17.02;7.95;;;12.30;99.90;;;;;;4958507;28;20035;-76
2023/10/16 10:38:21;;;;;;;17.42;8.10;;;12.60;99.90;;;;;;4959906;28;20046;-76
2023/10/16 10:41:11;;;;;;;12.68;6.80;;;12.90;99.90;;;;;;4955988;28;20104;-76
2023/10/16 10:43:46;;;;;;;20.25;10.25;;;13.10;99.90;;;;;;4993103;28;20446;-76
2023/10/16 10:46:25;;;;;;;20.07;10.73;;;13.20;99.90;;;;;;4963396;28;20033;-76
2023/10/16 10:48:54;;;;;;;15.40;7.97;;;12.60;99.90;;;;;;4961103;28;20129;-76
2023/10/16 10:51:20;;;;;;;24.15;10.63;;;12.40;99.90;;;;;;4972179;28;20042;-76
2023/10/16 10:53:55;;;;;;;14.13;7.78;;;12.60;99.90;;;;;;4974205;28;20038;-76
2023/10/16 10:56:21;;;;;;;14.38;7.28;;;12.90;99.90;;;;;;4972974;28;20042;-76
2023/10/16 10:58:47;;;;;;;14.75;7.85;;;12.80;99.90;;;;;;4970961;28;20491;-76
2023/10/16 11:01:16;;;;;;;15.68;8.02;;;12.70;99.90;;;;;;4975707;28;20066;-76
2023/10/16 11:03:45;;;;;;;12.75;6.60;;;13.60;99.90;;;;;;4972907;28;20115;-77
2023/10/16 11:06:17;;;;;;;11.68;7.25;;;13.20;99.90;;;;;;4959358;28;20034;-76
2023/10/16 11:08:45;;;;;;;14.02;9.07;;;13.60;99.90;;;;;;4971730;28;20133;-75
2023/10/16 11:11:10;;;;;;;14.65;8.90;;;13.40;99.90;;;;;;4975528;28;20042;-76
2023/10/16 11:13:44;;;;;;;17.67;8.52;;;13.10;99.90;;;;;;4956458;28;20033;-77
2023/10/16 11:16:10;;;;;;;11.77;4.93;;;13.10;99.90;;;;;;4958666;28;20446;-76
2023/10/16 11:18:37;;;;;;;10.10;3.90;;;13.00;99.90;;;;;;4956242;28;20045;-76
2023/10/16 11:21:07;;;;;;;8.27;3.15;;;12.80;99.90;;;;;;4973301;28;20117;-76
2023/10/16 11:23:38;;;;;;;8.63;3.70;;;12.80;99.90;;;;;;4976286;28;20038;-76
2023/10/16 11:26:05;;;;;;;12.02;3.30;;;12.80;99.90;;;;;;4978005;28;20149;-76
2023/10/16 11:28:36;;;;;;;4.68;2.70;;;12.90;99.90;;;;;;4957740;28;20034;-76
2023/10/16 11:31:01;;;;;;;5.82;2.95;;;12.80;99.90;;;;;;4973237;28;20045;-76
2023/10/16 11:33:28;;;;;;;6.22;3.50;;;12.90;99.90;;;;;;4976314;28;20031;-76
2023/10/16 11:35:58;;;;;;;6.55;2.97;;;13.10;99.90;;;;;;4973927;28;20038;-77
2023/10/16 11:38:30;;;;;;;7.63;2.90;;;13.10;99.90;;;;;;4968820;28;20457;-76
2023/10/16 11:41:04;;;;;;;8.13;3.70;;;13.00;99.90;;;;;;4978404;28;20076;-76
2023/10/16 11:43:31;;;;;;;4.43;3.05;;;13.10;99.90;;;;;;4961573;28;20042;-76
2023/10/16 11:45:57;;;;;;;9.50;3.83;;;13.10;99.90;;;;;;4972690;28;20045;-76
2023/10/16 11:50:51;;;;;;;7.32;3.22;;;13.80;99.90;;;;;;4971825;28;20042;-76
2023/10/16 11:53:28;;;;;;;7.65;3.33;;;13.90;99.90;;;;;;4974735;28;20042;-76
2023/10/16 11:55:53;;;;;;;9.38;4.13;;;14.00;99.90;;;;;;4976625;28;20026;-77
2023/10/16 11:58:19;;;;;;;7.25;2.50;;;14.30;99.90;;;;;;4972127;28;21187;-76
2023/10/16 12:00:56;;;;;;;5.82;2.65;;;14.40;99.90;;;;;;4971872;28;20406;-76
2023/10/16 12:03:26;;;;;;;11.38;2.20;;;15.00;99.90;;;;;;4957493;28;20041;-77
2023/10/16 12:05:55;;;;;;;4.75;2.90;;;15.40;99.90;;;;;;4969898;28;20030;-77
2023/10/16 12:08:21;;;;;;;4.50;2.72;;;15.40;99.90;;;;;;4962200;28;20511;-77
2023/10/16 12:10:48;;;;;;;8.63;3.50;;;15.50;99.90;;;;;;4956747;28;20494;-77
2023/10/16 12:13:13;;;;;;;10.43;4.00;;;15.20;99.90;;;;;;4957446;28;20038;-77
2023/10/16 12:15:43;;;;;;;8.75;5.13;;;15.00;99.90;;;;;;4958026;28;20393;-77
2023/10/16 12:18:09;;;;;;;9.40;4.25;;;14.80;99.90;;;;;;4975359;28;20038;-78
2023/10/16 12:20:37;;;;;;;9.15;5.25;;;14.80;99.90;;;;;;4976670;28;20109;-77
2023/10/16 12:23:04;;;;;;;10.32;4.38;;;14.80;99.90;;;;;;4973021;28;20038;-77
2023/10/16 12:25:29;;;;;;;8.23;4.40;;;14.80;99.90;;;;;;4967868;28;20343;-77
2023/10/16 12:27:55;;;;;;;8.35;4.70;;;14.80;99.90;;;;;;4971381;28;20030;-77
2023/10/16 12:30:20;;;;;;;8.20;5.03;;;14.90;99.90;;;;;;4971925;28;20118;-77
2023/10/16 12:32:47;;;;;;;6.10;4.55;;;15.00;99.90;;;;;;4977040;28;20584;-78
2023/10/16 12:35:13;;;;;;;10.07;4.45;;;15.00;99.90;;;;;;4971206;28;20582;-77
2023/10/16 12:37:39;;;;;;;5.68;3.75;;;15.10;99.90;;;;;;4974079;28;20133;-77
2023/10/16 12:40:24;;;;;;;8.23;3.63;;;15.10;99.90;;;;;;4967666;28;20129;-77
2023/10/16 12:42:58;;;;;;;9.38;4.38;;;15.20;99.90;;;;;;4972747;28;20483;-77
2023/10/16 12:45:23;;;;;;;8.80;3.42;;;15.30;99.90;;;;;;4956244;28;20023;-77
2023/10/16 12:47:51;;;;;;;8.40;4.03;;;15.40;99.90;;;;;;4955363;28;20041;-77
2023/10/16 12:50:18;;;;;;;8.98;3.40;;;15.50;99.90;;;;;;4967783;28;20487;-77
2023/10/16 12:52:44;;;;;;;5.93;3.60;;;15.50;99.90;;;;;;4955355;28;20403;-77
2023/10/16 12:55:10;;;;;;;5.32;3.28;;;15.60;99.90;;;;;;4983171;28;20517;-77
2023/10/16 12:57:36;;;;;;;4.65;2.83;;;15.70;99.90;;;;;;4972291;28;20041;-77
2023/10/16 13:00:13;;;;;;;4.65;2.88;;;16.00;99.90;;;;;;4973754;28;20038;-77
2023/10/16 13:02:42;;;;;;;5.75;3.38;;;15.90;99.90;;;;;;4974074;28;20498;-77
2023/10/16 13:05:13;;;;;;;7.70;3.05;;;15.80;99.90;;;;;;4958346;28;20073;-77
2023/10/16 13:07:42;;;;;;;5.38;3.25;;;15.80;99.90;;;;;;4964856;28;20034;-77
2023/10/16 13:10:26;;;;;;;7.38;3.70;;;15.90;99.90;;;;;;4971687;28;20438;-77
2023/10/16 13:12:51;;;;;;;7.72;3.40;;;15.90;99.90;;;;;;4958447;28;20038;-77
2023/10/16 13:15:24;;;;;;;10.07;4.05;;;15.90;99.90;;;;;;4957039;28;20096;-77
2023/10/16 13:17:50;;;;;;;6.22;3.58;;;15.90;99.90;;;;;;4954510;28;20371;-77
2023/10/16 13:20:19;;;;;;;9.02;3.85;;;15.90;99.90;;;;;;4971171;28;20161;-77
2023/10/16 13:22:52;;;;;;;8.93;4.10;;;15.90;99.90;;;;;;4955482;28;20030;-77
2023/10/16 13:25:35;;;;;;;5.93;3.72;;;15.90;99.90;;;;;;4975319;28;20498;-77
2023/10/16 13:28:00;;;;;;;9.35;4.50;;;16.00;99.90;;;;;;4976697;28;20041;-77
2023/10/16 13:30:26;;;;;;;7.40;4.90;;;16.00;99.90;;;;;;4970835;28;20026;-77
2023/10/16 13:32:52;;;;;;;8.27;5.55;;;15.90;99.90;;;;;;4973520;28;21625;-77
2023/10/16 13:35:18;;;;;;;8.43;4.93;;;16.00;99.90;;;;;;4972465;28;20122;-77
2023/10/16 13:37:44;;;;;;;6.97;4.68;;;15.90;99.90;;;;;;4955177;28;20034;-77
2023/10/16 13:40:20;;;;;;;11.60;5.30;;;15.90;99.90;;;;;;4959384;28;20111;-77
2023/10/16 13:42:47;;;;;;;;;;;15.80;99.90;;;;;;4970266;28;20379;-77
2023/10/16 13:45:13;;;;;;;10.50;4.82;;;15.90;99.90;;;;;;4956695;28;19956;-77
2023/10/16 13:47:42;;;;;;;8.77;5.63;;;15.80;99.90;;;;;;4968497;28;20038;-77
2023/10/16 13:50:16;;;;;;;8.45;5.28;;;15.90;99.90;;;;;;4988467;28;20030;-77
2023/10/16 13:52:43;;;;;;;13.88;5.85;;;15.90;99.90;;;;;;4976516;28;20077;-77
2023/10/16 13:55:13;;;;;;;9.65;5.50;;;15.90;99.90;;;;;;4960173;28;20039;-77
2023/10/16 13:57:47;;;;;;;12.52;6.40;;;15.90;99.90;;;;;;4959691;28;20072;-77
2023/10/16 14:00:28;;;;;;;9.73;5.25;;;15.90;99.90;;;;;;4956092;28;20057;-77
2023/10/16 14:03:10;;;;;;;12.30;6.05;;;16.00;99.90;;;;;;4958211;28;20050;-77
2023/10/16 14:05:40;;;;;;;8.65;5.43;;;15.90;99.90;;;;;;4956197;28;20030;-77
2023/10/16 14:08:09;;;;;;;12.43;6.32;;;15.90;99.90;;;;;;4976603;28;20026;-77
2023/10/16 14:11:00;;;;;;;9.57;6.32;;;15.90;99.90;;;;;;4961440;28;20036;-77
2023/10/16 14:13:27;;;;;;;11.43;6.30;;;15.90;99.90;;;;;;4981644;28;20030;-77
2023/10/16 14:16:17;;;;;;;9.60;5.85;;;15.80;99.90;;;;;;4974462;28;20038;-77
2023/10/16 14:18:43;;;;;;;15.27;5.32;;;15.80;99.90;;;;;;4978531;28;20398;-77
2023/10/16 14:21:10;;;;;;;8.15;5.55;;;15.90;99.90;;;;;;4975227;28;20033;-77
2023/10/16 14:23:38;;;;;;;7.13;4.70;;;15.80;99.90;;;;;;4972739;28;20038;-77
2023/10/16 14:26:10;;;;;;;8.82;5.60;;;15.80;99.90;;;;;;4963748;28;20118;-77
2023/10/16 14:28:50;;;;;;;8.55;4.57;;;15.80;99.90;;;;;;4957299;28;20034;-77
2023/10/16 14:31:20;;;;;;;10.00;5.38;;;15.80;99.90;;;;;;4976384;28;20541;-77
2023/10/16 14:33:46;;;;;;;8.35;5.18;;;15.70;99.90;;;;;;4958029;28;20069;-77
2023/10/16 14:36:16;;;;;;;9.15;5.18;;;15.80;99.90;;;;;;4955572;28;20045;-77
2023/10/16 14:38:42;;;;;;;8.07;5.32;;;15.80;99.90;;;;;;4955423;28;20035;-77
2023/10/16 14:41:15;;;;;;;11.15;4.53;;;15.70;99.90;;;;;;4973621;28;20423;-77